createdAt,value
2018-07-15T00:00:27.842Z,67.80
2018-07-15T00:01:27.844Z,67.86
2018-07-15T00:02:27.834Z,67.49
2018-07-15T00:03:27.807Z,67.29
2018-07-15T00:04:27.800Z,67.49
2018-07-15T00:05:27.787Z,68.10
2018-07-15T00:06:27.782Z,68.60
2018-07-15T00:07:27.780Z,68.00
2018-07-15T00:08:27.773Z,68.30
2018-07-15T00:09:27.746Z,67.39
2018-07-15T00:10:27.737Z,68.30
2018-07-15T00:11:27.723Z,68.13
2018-07-15T00:12:27.712Z,68.23
2018-07-15T00:13:27.700Z,68.23
2018-07-15T00:14:27.703Z,68.33
2018-07-15T00:15:27.682Z,68.80
2018-07-15T00:16:27.669Z,68.30
2018-07-15T00:17:27.675Z,67.02
2018-07-15T00:18:27.646Z,68.74
2018-07-15T00:19:27.635Z,68.74
2018-07-15T00:20:27.640Z,68.33
2018-07-15T00:21:27.617Z,68.84
2018-07-15T00:22:27.642Z,68.43
2018-07-15T00:23:27.591Z,68.74
2018-07-15T00:24:27.580Z,68.33
2018-07-15T00:25:27.569Z,68.54
2018-07-15T00:26:27.559Z,68.63
2018-07-15T00:27:27.550Z,68.74
2018-07-15T00:28:27.556Z,68.84
2018-07-15T00:29:27.524Z,68.54
2018-07-15T00:30:27.527Z,68.43
2018-07-15T00:31:27.504Z,68.74
2018-07-15T00:32:27.498Z,68.94
2018-07-15T00:33:27.522Z,68.67
2018-07-15T00:34:27.475Z,69.18
2018-07-15T00:35:27.461Z,68.77
2018-07-15T00:36:27.449Z,69.18
2018-07-15T00:37:27.441Z,68.77
2018-07-15T00:38:27.428Z,68.77
2018-07-15T00:39:27.434Z,69.27
2018-07-15T00:40:27.409Z,69.14
2018-07-15T00:41:27.398Z,68.47
2018-07-15T00:42:27.390Z,68.23
2018-07-15T00:43:27.375Z,69.07
2018-07-15T00:44:27.386Z,68.54
2018-07-15T00:45:27.356Z,68.94
2018-07-15T00:46:27.346Z,69.24
2018-07-15T00:47:27.335Z,69.34
2018-07-15T00:48:27.319Z,68.94
2018-07-15T00:49:27.311Z,68.67
2018-07-15T00:50:27.314Z,68.57
2018-07-15T00:51:27.285Z,68.67
2018-07-15T00:52:27.275Z,68.06
2018-07-15T00:53:27.265Z,69.07
2018-07-15T00:54:27.255Z,68.54
2018-07-15T00:55:27.258Z,68.84
2018-07-15T00:56:27.230Z,68.57
2018-07-15T00:57:27.222Z,68.77
2018-07-15T00:58:27.208Z,68.87
2018-07-15T00:59:27.213Z,68.97
2018-07-15T01:00:27.185Z,68.47
2018-07-15T01:01:27.177Z,69.07
2018-07-15T01:02:27.166Z,68.87
2018-07-15T01:03:27.154Z,68.77
2018-07-15T01:04:27.155Z,68.57
2018-07-15T01:05:27.131Z,69.27
2018-07-15T01:06:27.123Z,69.07
2018-07-15T01:07:27.112Z,68.87
2018-07-15T01:08:27.099Z,68.57
2018-07-15T01:09:27.104Z,68.77
2018-07-15T01:10:27.076Z,69.18
2018-07-15T01:11:27.072Z,68.67
2018-07-15T01:12:27.068Z,68.77
2018-07-15T01:13:27.049Z,70.18
2018-07-15T01:14:27.035Z,69.21
2018-07-15T01:15:27.023Z,69.21
2018-07-15T01:16:27.009Z,69.81
2018-07-15T01:17:27.019Z,68.67
2018-07-15T01:18:26.987Z,69.31
2018-07-15T01:19:26.979Z,69.31
2018-07-15T01:20:26.965Z,69.10
2018-07-15T01:21:26.958Z,69.21
2018-07-15T01:22:26.967Z,68.60
2018-07-15T01:23:26.933Z,69.01
2018-07-15T01:24:26.920Z,69.71
2018-07-15T01:25:26.915Z,70.22
2018-07-15T01:26:26.919Z,70.22
2018-07-15T01:27:26.913Z,70.32
2018-07-15T01:28:26.876Z,70.05
2018-07-15T01:29:26.872Z,70.36
2018-07-15T01:30:26.853Z,70.36
2018-07-15T01:31:26.842Z,70.56
2018-07-15T01:32:26.832Z,71.16
2018-07-15T01:33:26.837Z,71.09
2018-07-15T01:34:26.816Z,70.96
2018-07-15T01:35:26.800Z,70.86
2018-07-15T01:36:26.790Z,70.76
2018-07-15T01:37:26.782Z,71.47
2018-07-15T01:38:26.769Z,71.06
2018-07-15T01:39:26.763Z,70.76
2018-07-15T01:40:26.744Z,70.89
2018-07-15T01:41:26.737Z,71.80
2018-07-15T01:42:26.721Z,71.60
2018-07-15T01:43:26.711Z,71.60
2018-07-15T01:44:26.717Z,71.91
2018-07-15T01:45:26.694Z,72.52
2018-07-15T01:46:26.693Z,72.75
2018-07-15T01:47:26.672Z,72.81
2018-07-15T01:48:26.658Z,72.21
2018-07-15T01:49:26.651Z,71.73
2018-07-15T01:50:26.639Z,72.81
2018-07-15T01:51:26.643Z,72.65
2018-07-15T01:52:26.616Z,72.34
2018-07-15T01:53:26.605Z,72.04
2018-07-15T01:54:26.608Z,72.55
2018-07-15T01:55:26.584Z,72.96
2018-07-15T01:56:26.573Z,72.96
2018-07-15T01:57:26.577Z,73.46
2018-07-15T01:58:26.550Z,73.16
2018-07-15T01:59:26.546Z,73.36
2018-07-15T02:00:26.548Z,73.36
2018-07-15T02:01:26.520Z,73.36
2018-07-15T02:02:26.523Z,73.49
2018-07-15T02:03:26.498Z,73.70
2018-07-15T02:04:26.489Z,73.39
2018-07-15T02:05:26.491Z,73.60
2018-07-15T02:06:26.467Z,73.70
2018-07-15T02:07:26.460Z,73.29
2018-07-15T02:08:26.462Z,74.30
2018-07-15T02:09:26.429Z,73.90
2018-07-15T02:10:26.420Z,74.10
2018-07-15T02:11:26.412Z,73.90
2018-07-15T02:12:26.399Z,73.80
2018-07-15T02:13:26.388Z,74.10
2018-07-15T02:14:26.401Z,74.21
2018-07-15T02:15:26.370Z,74.30
2018-07-15T02:16:26.357Z,74.00
2018-07-15T02:17:26.349Z,74.48
2018-07-15T02:18:26.336Z,74.10
2018-07-15T02:19:26.327Z,74.41
2018-07-15T02:20:26.342Z,74.41
2018-07-15T02:21:26.306Z,74.41
2018-07-15T02:22:26.296Z,74.21
2018-07-15T02:23:26.283Z,74.30
2018-07-15T02:24:26.279Z,74.41
2018-07-15T02:25:26.263Z,74.71
2018-07-15T02:26:26.266Z,74.61
2018-07-15T02:27:26.264Z,74.61
2018-07-15T02:28:26.231Z,74.61
2018-07-15T02:29:26.220Z,74.30
2018-07-15T02:30:26.213Z,74.71
2018-07-15T02:31:26.200Z,74.61
2018-07-15T02:32:26.192Z,74.95
2018-07-15T02:33:26.194Z,74.74
2018-07-15T02:34:26.171Z,74.65
2018-07-15T02:35:26.156Z,74.85
2018-07-15T02:36:26.149Z,75.35
2018-07-15T02:37:26.150Z,75.15
2018-07-15T02:38:26.125Z,75.05
2018-07-15T02:39:26.114Z,75.56
2018-07-15T02:40:26.106Z,75.66
2018-07-15T02:41:26.095Z,75.39
2018-07-15T02:42:26.097Z,75.49
2018-07-15T02:43:26.085Z,75.59
2018-07-15T02:44:26.069Z,76.10
2018-07-15T02:45:26.054Z,75.90
2018-07-15T02:46:26.042Z,75.70
2018-07-15T02:47:26.032Z,75.70
2018-07-15T02:48:26.033Z,75.90
2018-07-15T02:49:26.024Z,76.00
2018-07-15T02:50:26.010Z,75.79
2018-07-15T02:51:25.986Z,75.79
2018-07-15T02:52:25.976Z,76.20
2018-07-15T02:53:25.978Z,75.93
2018-07-15T02:54:25.959Z,76.03
2018-07-15T02:55:25.943Z,75.70
2018-07-15T02:56:25.944Z,75.93
2018-07-15T02:57:25.921Z,76.14
2018-07-15T02:58:25.948Z,76.03
2018-07-15T02:59:25.901Z,76.03
2018-07-15T03:00:25.891Z,76.54
2018-07-15T03:01:25.879Z,76.34
2018-07-15T03:02:25.865Z,76.34
2018-07-15T03:03:25.859Z,76.95
2018-07-15T03:04:25.867Z,76.44
2018-07-15T03:05:25.833Z,76.75
2018-07-15T03:06:25.822Z,76.24
2018-07-15T03:07:25.828Z,76.17
2018-07-15T03:08:25.814Z,76.75
2018-07-15T03:09:25.789Z,76.95
2018-07-15T03:10:25.779Z,76.34
2018-07-15T03:11:25.771Z,76.68
2018-07-15T03:12:25.759Z,76.98
2018-07-15T03:13:25.762Z,76.98
2018-07-15T03:14:25.736Z,76.98
2018-07-15T03:15:25.727Z,77.70
2018-07-15T03:16:25.712Z,77.19
2018-07-15T03:17:25.769Z,77.29
2018-07-15T03:18:25.695Z,76.98
2018-07-15T03:19:25.685Z,77.09
2018-07-15T03:20:25.673Z,77.59
2018-07-15T03:21:25.692Z,77.59
2018-07-15T03:22:25.652Z,77.19
2018-07-15T03:23:25.638Z,77.43
2018-07-15T03:24:25.625Z,77.33
2018-07-15T03:25:25.617Z,77.94
2018-07-15T03:26:25.608Z,77.70
2018-07-15T03:27:25.610Z,77.33
2018-07-15T03:28:25.583Z,77.73
2018-07-15T03:29:25.573Z,77.83
2018-07-15T03:30:25.569Z,78.04
2018-07-15T03:31:25.583Z,77.73
2018-07-15T03:32:25.538Z,77.63
2018-07-15T03:33:25.527Z,77.73
2018-07-15T03:34:25.519Z,78.04
2018-07-15T03:35:25.508Z,77.94
2018-07-15T03:36:25.495Z,78.64
2018-07-15T03:37:25.500Z,78.55
2018-07-15T03:38:25.471Z,78.24
2018-07-15T03:39:25.464Z,78.75
2018-07-15T03:40:25.456Z,78.20
2018-07-15T03:41:25.450Z,78.44
2018-07-15T03:42:25.443Z,78.64
2018-07-15T03:43:25.431Z,78.55
2018-07-15T03:44:25.407Z,77.73
2018-07-15T03:45:25.396Z,78.04
2018-07-15T03:46:25.389Z,78.64
2018-07-15T03:47:25.374Z,77.80
2018-07-15T03:48:25.390Z,78.41
2018-07-15T03:49:25.353Z,78.24
2018-07-15T03:50:25.346Z,78.44
2018-07-15T03:51:25.332Z,78.34
2018-07-15T03:52:25.328Z,78.64
2018-07-15T03:53:25.312Z,78.75
2018-07-15T03:54:25.328Z,77.70
2018-07-15T03:55:25.289Z,78.04
2018-07-15T03:56:25.293Z,78.44
2018-07-15T03:57:25.267Z,78.34
2018-07-15T03:58:25.284Z,78.34
2018-07-15T03:59:25.243Z,78.44
2018-07-15T04:00:25.232Z,78.34
2018-07-15T04:01:25.235Z,78.34
2018-07-15T04:02:25.211Z,78.95
2018-07-15T04:03:25.200Z,78.34
2018-07-15T04:04:25.189Z,78.55
2018-07-15T04:05:25.180Z,78.34
2018-07-15T04:06:25.180Z,78.34
2018-07-15T04:07:25.162Z,78.75
2018-07-15T04:08:25.149Z,78.44
2018-07-15T04:09:25.141Z,78.95
2018-07-15T04:10:25.124Z,78.85
2018-07-15T04:11:25.127Z,79.25
2018-07-15T04:12:25.144Z,79.05
2018-07-15T04:13:25.090Z,78.75
2018-07-15T04:14:25.081Z,78.75
2018-07-15T04:15:25.072Z,78.64
2018-07-15T04:16:25.062Z,79.25
2018-07-15T04:17:25.048Z,78.75
2018-07-15T04:18:25.052Z,78.71
2018-07-15T04:19:25.027Z,78.55
2018-07-15T04:20:25.019Z,78.64
2018-07-15T04:21:25.008Z,78.34
2018-07-15T04:22:24.995Z,78.64
2018-07-15T04:23:24.999Z,78.95
2018-07-15T04:24:24.975Z,79.25
2018-07-15T04:25:24.974Z,78.95
2018-07-15T04:26:24.953Z,78.64
2018-07-15T04:27:24.940Z,78.95
2018-07-15T04:28:25.043Z,78.75
2018-07-15T04:29:24.921Z,78.51
2018-07-15T04:30:24.908Z,78.61
2018-07-15T04:31:24.895Z,78.41
2018-07-15T04:32:24.887Z,78.20
2018-07-15T04:33:24.873Z,78.41
2018-07-15T04:34:24.909Z,78.30
2018-07-15T04:35:24.852Z,78.20
2018-07-15T04:36:24.840Z,77.66
2018-07-15T04:37:24.830Z,78.00
2018-07-15T04:38:24.822Z,78.37
2018-07-15T04:39:24.811Z,78.27
2018-07-15T04:40:24.816Z,78.17
2018-07-15T04:41:24.785Z,78.57
2018-07-15T04:42:24.798Z,78.27
2018-07-15T04:43:24.765Z,78.47
2018-07-15T04:44:24.753Z,77.66
2018-07-15T04:45:24.742Z,78.27
2018-07-15T04:46:24.730Z,78.44
2018-07-15T04:47:24.720Z,77.83
2018-07-15T04:48:24.719Z,78.03
2018-07-15T04:49:24.731Z,77.93
2018-07-15T04:50:24.689Z,77.52
2018-07-15T04:51:24.679Z,77.62
2018-07-15T04:52:24.665Z,77.22
2018-07-15T04:53:24.669Z,77.42
2018-07-15T04:54:24.650Z,77.01
2018-07-15T04:55:24.637Z,76.91
2018-07-15T04:56:24.623Z,77.93
2018-07-15T04:57:24.634Z,77.72
2018-07-15T04:58:24.605Z,77.28
2018-07-15T04:59:24.592Z,77.18
2018-07-15T05:00:24.583Z,76.87
2018-07-15T05:01:24.571Z,76.98
2018-07-15T05:02:24.560Z,77.22
2018-07-15T05:03:24.563Z,77.18
2018-07-15T05:04:24.540Z,77.18
2018-07-15T05:05:24.532Z,77.08
2018-07-15T05:06:24.532Z,77.48
2018-07-15T05:07:24.507Z,77.48
2018-07-15T05:08:24.499Z,76.74
2018-07-15T05:09:24.487Z,76.03
2018-07-15T05:10:24.490Z,75.93
2018-07-15T05:11:24.513Z,75.82
2018-07-15T05:12:24.454Z,75.52
2018-07-15T05:13:24.446Z,75.32
2018-07-15T05:14:24.450Z,74.61
2018-07-15T05:15:24.423Z,75.01
2018-07-15T05:16:24.415Z,74.77
2018-07-15T05:17:24.401Z,75.28
2018-07-15T05:18:24.423Z,74.88
2018-07-15T05:19:24.379Z,74.77
2018-07-15T05:20:24.373Z,74.37
2018-07-15T05:21:24.370Z,73.86
2018-07-15T05:22:24.344Z,74.27
2018-07-15T05:23:24.344Z,74.77
2018-07-15T05:24:24.336Z,74.33
2018-07-15T05:25:24.311Z,73.93
2018-07-15T05:26:24.340Z,73.93
2018-07-15T05:27:24.289Z,73.90
2018-07-15T05:28:24.279Z,73.69
2018-07-15T05:29:24.271Z,73.69
2018-07-15T05:30:24.257Z,73.39
2018-07-15T05:31:24.254Z,73.39
2018-07-15T05:32:24.256Z,72.95
2018-07-15T05:33:24.226Z,72.95
2018-07-15T05:34:24.214Z,72.75
2018-07-15T05:35:24.204Z,72.92
2018-07-15T05:36:24.193Z,72.31
2018-07-15T05:37:24.183Z,71.37
2018-07-15T05:38:24.179Z,71.47
2018-07-15T05:39:24.159Z,70.22
2018-07-15T05:40:24.147Z,69.92
2018-07-15T05:41:24.151Z,70.02
2018-07-15T05:42:24.123Z,69.08
2018-07-15T05:43:24.114Z,68.67
2018-07-15T05:44:24.193Z,68.13
2018-07-15T05:45:24.093Z,68.30
2018-07-15T05:46:24.078Z,67.16
2018-07-15T05:47:24.069Z,65.39
2018-07-15T05:48:24.060Z,63.59
2018-07-15T05:49:24.055Z,61.31
2018-07-15T05:50:24.037Z,59.62
2018-07-15T05:51:24.027Z,56.40
2018-07-15T05:52:24.025Z,53.99
2018-07-15T05:53:23.999Z,51.79
2018-07-15T05:54:23.992Z,49.23
2018-07-15T05:55:23.991Z,47.49
2018-07-15T05:56:23.969Z,47.96
2018-07-15T05:57:23.972Z,47.52
2018-07-15T05:58:23.973Z,46.31
2018-07-15T05:59:23.935Z,45.51
2018-07-15T06:00:23.928Z,45.93
2018-07-15T06:01:23.915Z,47.56
2018-07-15T06:02:23.904Z,48.58
2018-07-15T06:03:24.020Z,49.43
2018-07-15T06:04:23.894Z,50.99
2018-07-15T06:05:23.871Z,52.39
2018-07-15T06:06:23.859Z,53.44
2018-07-15T06:07:23.860Z,55.50
2018-07-15T06:08:23.849Z,56.52
2018-07-15T06:09:23.823Z,56.43
2018-07-15T06:10:23.815Z,58.09
2018-07-15T06:11:23.803Z,58.22
2018-07-15T06:12:23.796Z,57.98
2018-07-15T06:13:23.793Z,57.98
2018-07-15T06:14:23.786Z,57.51
2018-07-15T06:15:23.772Z,58.92
2018-07-15T06:16:23.748Z,58.22
2018-07-15T06:17:23.739Z,59.14
2018-07-15T06:18:23.730Z,57.91
2018-07-15T06:19:23.727Z,59.22
2018-07-15T06:20:23.711Z,58.72
2018-07-15T06:21:23.711Z,57.31
2018-07-15T06:22:23.683Z,56.81
2018-07-15T06:23:23.674Z,57.98
2018-07-15T06:24:23.660Z,55.95
2018-07-15T06:25:23.653Z,54.67
2018-07-15T06:26:23.642Z,53.19
2018-07-15T06:27:23.675Z,51.70
2018-07-15T06:28:23.617Z,49.18
2018-07-15T06:29:23.610Z,47.72
2018-07-15T06:30:23.598Z,45.32
2018-07-15T06:31:23.587Z,42.86
2018-07-15T06:32:23.576Z,41.41
2018-07-15T06:33:23.578Z,40.21
2018-07-15T06:34:23.555Z,39.86
2018-07-15T06:35:23.544Z,38.75
2018-07-15T06:36:23.534Z,39.86
2018-07-15T06:37:23.536Z,38.57
2018-07-15T06:38:23.511Z,37.98
2018-07-15T06:39:23.516Z,38.56
2018-07-15T06:40:23.490Z,37.95
2018-07-15T06:41:23.477Z,38.62
2018-07-15T06:42:23.470Z,38.60
2018-07-15T06:43:23.457Z,37.69
2018-07-15T06:44:23.452Z,37.48
2018-07-15T06:45:23.451Z,36.67
2018-07-15T06:46:23.453Z,35.88
2018-07-15T06:47:23.416Z,35.99
2018-07-15T06:48:23.408Z,37.48
2018-07-15T06:49:23.441Z,37.18
2018-07-15T06:50:23.381Z,37.20
2018-07-15T06:51:23.373Z,37.08
2018-07-15T06:52:23.362Z,37.32
2018-07-15T06:53:23.351Z,37.89
2018-07-15T06:54:23.340Z,37.59
2018-07-15T06:55:23.340Z,37.48
2018-07-15T06:56:23.330Z,37.16
2018-07-15T06:57:23.303Z,36.95
2018-07-15T06:58:23.296Z,36.26
2018-07-15T06:59:23.284Z,36.95
2018-07-15T07:00:23.271Z,36.95
2018-07-15T07:01:23.263Z,35.66
2018-07-15T07:02:23.262Z,35.64
2018-07-15T07:03:23.241Z,36.01
2018-07-15T07:04:23.230Z,35.54
2018-07-15T07:05:23.216Z,35.34
2018-07-15T07:06:23.220Z,35.83
2018-07-15T07:07:23.258Z,35.54
2018-07-15T07:08:23.184Z,36.13
2018-07-15T07:09:23.174Z,35.24
2018-07-15T07:10:23.166Z,35.95
2018-07-15T07:11:23.179Z,35.72
2018-07-15T07:12:23.143Z,35.54
2018-07-15T07:13:23.131Z,34.93
2018-07-15T07:14:23.122Z,35.72
2018-07-15T07:15:23.111Z,35.42
2018-07-15T07:16:23.102Z,34.93
2018-07-15T07:17:23.108Z,35.05
2018-07-15T07:18:23.092Z,34.95
2018-07-15T07:19:23.068Z,34.85
2018-07-15T07:20:23.087Z,35.33
2018-07-15T07:21:23.050Z,35.33
2018-07-15T07:22:23.057Z,34.83
2018-07-15T07:23:23.026Z,34.74
2018-07-15T07:24:23.018Z,34.93
2018-07-15T07:25:23.009Z,33.75
2018-07-15T07:26:23.003Z,34.74
2018-07-15T07:27:22.998Z,34.42
2018-07-15T07:28:22.973Z,35.49
2018-07-15T07:29:22.963Z,35.68
2018-07-15T07:30:22.957Z,34.11
2018-07-15T07:31:22.957Z,34.13
2018-07-15T07:32:22.931Z,35.23
2018-07-15T07:33:22.919Z,34.83
2018-07-15T07:34:22.909Z,36.01
2018-07-15T07:35:22.981Z,35.14
2018-07-15T07:36:22.895Z,35.46
2018-07-15T07:37:22.879Z,35.88
2018-07-15T07:38:22.889Z,35.87
2018-07-15T07:39:22.856Z,36.36
2018-07-15T07:40:22.849Z,35.55
2018-07-15T07:41:23.019Z,34.95
2018-07-15T07:42:22.824Z,35.42
2018-07-15T07:43:22.814Z,35.02
2018-07-15T07:44:22.819Z,34.62
2018-07-15T07:45:22.794Z,34.81
2018-07-15T07:46:22.795Z,34.36
2018-07-15T07:47:22.774Z,34.08
2018-07-15T07:48:22.765Z,34.89
2018-07-15T07:49:22.753Z,35.08
2018-07-15T07:50:22.744Z,35.30
2018-07-15T07:51:22.743Z,34.80
2018-07-15T07:52:22.722Z,35.51
2018-07-15T07:53:22.818Z,35.61
2018-07-15T07:54:22.702Z,36.00
2018-07-15T07:55:22.691Z,36.00
2018-07-15T07:56:22.681Z,35.03
2018-07-15T07:57:22.670Z,34.54
2018-07-15T07:58:22.659Z,34.86
2018-07-15T07:59:22.660Z,34.97
2018-07-15T08:00:22.636Z,35.36
2018-07-15T08:01:22.624Z,35.97
2018-07-15T08:02:22.618Z,35.68
2018-07-15T08:03:22.607Z,36.25
2018-07-15T08:04:22.609Z,35.44
2018-07-15T08:05:22.583Z,34.66
2018-07-15T08:06:22.575Z,35.35
2018-07-15T08:07:22.564Z,34.58
2018-07-15T08:08:22.558Z,34.69
2018-07-15T08:09:22.559Z,35.88
2018-07-15T08:10:22.532Z,34.41
2018-07-15T08:11:22.523Z,36.46
2018-07-15T08:12:22.510Z,35.66
2018-07-15T08:13:22.499Z,35.54
2018-07-15T08:14:22.495Z,35.18
2018-07-15T08:15:22.588Z,36.07
2018-07-15T08:16:22.470Z,36.35
2018-07-15T08:17:22.459Z,35.44
2018-07-15T08:18:22.453Z,35.43
2018-07-15T08:19:22.436Z,35.13
2018-07-15T08:20:22.444Z,35.43
2018-07-15T08:21:22.415Z,35.03
2018-07-15T08:22:22.406Z,35.61
2018-07-15T08:23:22.411Z,33.75
2018-07-15T08:24:22.384Z,34.54
2018-07-15T08:25:22.374Z,33.77
2018-07-15T08:26:22.365Z,34.86
2018-07-15T08:27:22.355Z,35.33
2018-07-15T08:28:22.387Z,35.88
2018-07-15T08:29:22.332Z,33.74
2018-07-15T08:30:22.325Z,34.80
2018-07-15T08:31:22.314Z,33.53
2018-07-15T08:32:22.304Z,34.22
2018-07-15T08:33:22.294Z,33.82
2018-07-15T08:34:22.323Z,33.72
2018-07-15T08:35:22.273Z,35.59
2018-07-15T08:36:22.261Z,34.53
2018-07-15T08:37:22.251Z,35.23
2018-07-15T08:38:22.241Z,35.35
2018-07-15T08:39:22.229Z,34.94
2018-07-15T08:40:22.235Z,34.15
2018-07-15T08:41:22.209Z,35.53
2018-07-15T08:42:22.201Z,35.44
2018-07-15T08:43:22.212Z,35.03
2018-07-15T08:44:22.178Z,35.03
2018-07-15T08:45:22.177Z,34.05
2018-07-15T08:46:22.160Z,34.13
2018-07-15T08:47:22.147Z,34.43
2018-07-15T08:48:22.138Z,34.15
2018-07-15T08:49:22.141Z,35.43
2018-07-15T08:50:22.117Z,35.23
2018-07-15T08:51:22.127Z,34.94
2018-07-15T08:52:22.100Z,34.33
2018-07-15T08:53:22.088Z,34.72
2018-07-15T08:54:22.076Z,34.90
2018-07-15T08:55:22.070Z,35.11
2018-07-15T08:56:22.064Z,35.11
2018-07-15T08:57:22.066Z,35.31
2018-07-15T08:58:22.039Z,34.53
2018-07-15T08:59:22.029Z,34.92
2018-07-15T09:00:22.019Z,35.43
2018-07-15T09:01:22.009Z,34.44
2018-07-15T09:02:22.011Z,36.61
2018-07-15T09:03:22.078Z,36.90
2018-07-15T09:04:21.975Z,37.69
2018-07-15T09:05:21.968Z,36.10
2018-07-15T09:06:21.960Z,34.94
2018-07-15T09:07:21.948Z,35.31
2018-07-15T09:08:21.938Z,36.30
2018-07-15T09:09:21.939Z,36.18
2018-07-15T09:10:21.916Z,35.49
2018-07-15T09:11:21.905Z,35.59
2018-07-15T09:12:21.908Z,34.92
2018-07-15T09:13:21.887Z,36.00
2018-07-15T09:14:21.891Z,35.33
2018-07-15T09:15:21.867Z,35.23
2018-07-15T09:16:21.856Z,35.33
2018-07-15T09:17:21.846Z,35.82
2018-07-15T09:18:21.931Z,36.22
2018-07-15T09:19:21.824Z,35.02
2018-07-15T09:20:21.834Z,36.00
2018-07-15T09:21:21.803Z,34.63
2018-07-15T09:22:21.794Z,35.02
2018-07-15T09:23:21.782Z,34.33
2018-07-15T09:24:21.773Z,34.53
2018-07-15T09:25:21.763Z,35.13
2018-07-15T09:26:21.769Z,33.65
2018-07-15T09:27:21.743Z,35.72
2018-07-15T09:28:21.735Z,34.94
2018-07-15T09:29:21.722Z,33.65
2018-07-15T09:30:21.731Z,36.23
2018-07-15T09:31:21.705Z,35.84
2018-07-15T09:32:21.696Z,36.13
2018-07-15T09:33:21.682Z,35.92
2018-07-15T09:34:21.680Z,35.74
2018-07-15T09:35:21.725Z,35.82
2018-07-15T09:36:21.696Z,36.23
2018-07-15T09:37:21.642Z,35.23
2018-07-15T09:38:21.632Z,35.23
2018-07-15T09:39:21.620Z,35.25
2018-07-15T09:40:21.610Z,34.95
2018-07-15T09:41:21.602Z,34.95
2018-07-15T09:42:21.612Z,35.54
2018-07-15T09:43:21.580Z,36.53
2018-07-15T09:44:21.570Z,35.84
2018-07-15T09:45:21.560Z,36.02
2018-07-15T09:46:21.551Z,36.22
2018-07-15T09:47:21.540Z,35.53
2018-07-15T09:48:21.575Z,35.13
2018-07-15T09:49:21.522Z,36.00
2018-07-15T09:50:21.513Z,35.71
2018-07-15T09:51:21.504Z,34.43
2018-07-15T09:52:21.491Z,35.13
2018-07-15T09:53:21.483Z,35.63
2018-07-15T09:54:21.500Z,35.43
2018-07-15T09:55:21.463Z,35.43
2018-07-15T09:56:21.452Z,36.13
2018-07-15T09:57:21.444Z,34.13
2018-07-15T09:58:21.445Z,35.61
2018-07-15T09:59:21.421Z,33.25
2018-07-15T10:00:21.427Z,35.61
2018-07-15T10:01:21.403Z,34.22
2018-07-15T10:02:21.392Z,35.20
2018-07-15T10:03:21.397Z,34.70
2018-07-15T10:04:21.380Z,35.39
2018-07-15T10:05:21.368Z,34.90
2018-07-15T10:06:21.353Z,35.21
2018-07-15T10:07:21.344Z,34.63
2018-07-15T10:08:21.351Z,34.54
2018-07-15T10:09:21.338Z,35.63
2018-07-15T10:10:21.339Z,35.13
2018-07-15T10:11:21.305Z,34.43
2018-07-15T10:12:21.299Z,33.62
2018-07-15T10:13:21.285Z,34.41
2018-07-15T10:14:21.295Z,35.30
2018-07-15T10:15:21.268Z,35.20
2018-07-15T10:16:21.257Z,34.51
2018-07-15T10:17:21.261Z,34.89
2018-07-15T10:18:21.239Z,34.28
2018-07-15T10:19:21.242Z,34.08
2018-07-15T10:20:21.219Z,33.12
2018-07-15T10:21:21.206Z,32.23
2018-07-15T10:22:21.199Z,34.22
2018-07-15T10:23:21.189Z,34.41
2018-07-15T10:24:21.192Z,35.20
2018-07-15T10:25:21.169Z,33.62
2018-07-15T10:26:21.156Z,31.95
2018-07-15T10:27:21.149Z,32.45
2018-07-15T10:28:21.152Z,33.13
2018-07-15T10:29:21.127Z,32.45
2018-07-15T10:30:21.136Z,32.84
2018-07-15T10:31:21.107Z,32.15
2018-07-15T10:32:21.101Z,32.26
2018-07-15T10:33:21.090Z,32.24
2018-07-15T10:34:21.083Z,33.23
2018-07-15T10:35:21.070Z,31.85
2018-07-15T10:36:21.101Z,31.46
2018-07-15T10:37:21.047Z,31.48
2018-07-15T10:38:21.040Z,32.54
2018-07-15T10:39:21.030Z,31.36
2018-07-15T10:40:21.019Z,33.34
2018-07-15T10:41:21.009Z,33.86
2018-07-15T10:42:21.015Z,33.67
2018-07-15T10:43:20.992Z,35.35
2018-07-15T10:44:20.979Z,35.35
2018-07-15T10:45:20.968Z,33.46
2018-07-15T10:46:20.974Z,34.63
2018-07-15T10:47:20.951Z,35.21
2018-07-15T10:48:20.943Z,33.64
2018-07-15T10:49:20.932Z,33.13
2018-07-15T10:50:20.921Z,33.43
2018-07-15T10:51:20.934Z,32.45
2018-07-15T10:52:20.899Z,31.66
2018-07-15T10:53:20.889Z,32.74
2018-07-15T10:54:20.881Z,32.07
2018-07-15T10:55:20.869Z,32.56
2018-07-15T10:56:20.859Z,33.13
2018-07-15T10:57:20.868Z,31.46
2018-07-15T10:58:20.841Z,30.87
2018-07-15T10:59:20.837Z,32.24
2018-07-15T11:00:20.823Z,32.84
2018-07-15T11:01:20.810Z,30.97
2018-07-15T11:02:20.801Z,32.05
2018-07-15T11:03:20.807Z,32.15
2018-07-15T11:04:20.783Z,33.43
2018-07-15T11:05:20.778Z,33.82
2018-07-15T11:06:20.828Z,33.61
2018-07-15T11:07:20.757Z,33.98
2018-07-15T11:08:20.771Z,33.29
2018-07-15T11:09:20.738Z,33.89
2018-07-15T11:10:20.729Z,33.97
2018-07-15T11:11:20.720Z,32.40
2018-07-15T11:12:20.711Z,33.38
2018-07-15T11:13:20.709Z,33.08
2018-07-15T11:14:20.712Z,33.18
2018-07-15T11:15:20.681Z,32.48
2018-07-15T11:16:20.709Z,33.17
2018-07-15T11:17:20.665Z,32.18
2018-07-15T11:18:20.656Z,30.71
2018-07-15T11:19:20.725Z,32.40
2018-07-15T11:20:20.636Z,32.98
2018-07-15T11:21:20.628Z,32.20
2018-07-15T11:22:20.621Z,31.63
2018-07-15T11:23:20.606Z,32.71
2018-07-15T11:24:20.601Z,32.61
2018-07-15T11:25:20.602Z,33.08
2018-07-15T11:26:20.576Z,32.98
2018-07-15T11:27:20.570Z,33.28
2018-07-15T11:28:20.574Z,32.97
2018-07-15T11:29:20.552Z,32.48
2018-07-15T11:30:20.540Z,32.98
2018-07-15T11:31:20.548Z,33.38
2018-07-15T11:32:20.521Z,32.09
2018-07-15T11:33:20.516Z,32.48
2018-07-15T11:34:20.516Z,31.79
2018-07-15T11:35:20.497Z,31.70
2018-07-15T11:36:20.499Z,32.78
2018-07-15T11:37:20.493Z,31.89
2018-07-15T11:38:20.464Z,32.68
2018-07-15T11:39:20.453Z,32.28
2018-07-15T11:40:20.467Z,32.68
2018-07-15T11:41:20.433Z,31.40
2018-07-15T11:42:20.423Z,32.57
2018-07-15T11:43:20.412Z,30.91
2018-07-15T11:44:20.419Z,31.61
2018-07-15T11:45:20.396Z,31.92
2018-07-15T11:46:20.387Z,32.74
2018-07-15T11:47:20.389Z,34.22
2018-07-15T11:48:20.530Z,33.41
2018-07-15T11:49:20.371Z,33.23
2018-07-15T11:50:20.347Z,32.54
2018-07-15T11:51:20.341Z,33.72
2018-07-15T11:52:20.344Z,33.82
2018-07-15T11:53:20.323Z,34.10
2018-07-15T11:54:20.314Z,33.79
2018-07-15T11:55:20.303Z,33.00
2018-07-15T11:56:20.294Z,30.74
2018-07-15T11:57:20.310Z,31.82
2018-07-15T11:58:20.278Z,31.46
2018-07-15T11:59:20.268Z,32.74
2018-07-15T12:00:20.258Z,34.78
2018-07-15T12:01:20.246Z,34.47
2018-07-15T12:02:20.251Z,32.41
2018-07-15T12:03:20.227Z,33.28
2018-07-15T12:04:20.215Z,31.61
2018-07-15T12:05:20.205Z,32.09
2018-07-15T12:06:20.197Z,33.46
2018-07-15T12:07:20.207Z,33.17
2018-07-15T12:08:20.178Z,31.89
2018-07-15T12:09:20.165Z,32.57
2018-07-15T12:10:20.158Z,31.77
2018-07-15T12:11:20.161Z,30.90
2018-07-15T12:12:20.139Z,32.45
2018-07-15T12:13:20.143Z,31.86
2018-07-15T12:14:20.118Z,31.48
2018-07-15T12:15:20.106Z,29.52
2018-07-15T12:16:20.116Z,31.58
2018-07-15T12:17:20.090Z,32.27
2018-07-15T12:18:20.078Z,32.66
2018-07-15T12:19:20.068Z,31.76
2018-07-15T12:20:20.134Z,30.78
2018-07-15T12:21:20.050Z,30.68
2018-07-15T12:22:20.055Z,30.68
2018-07-15T12:23:20.048Z,31.48
2018-07-15T12:24:20.023Z,31.77
2018-07-15T12:25:20.015Z,30.91
2018-07-15T12:26:20.005Z,30.22
2018-07-15T12:27:19.995Z,30.14
2018-07-15T12:28:20.025Z,32.21
2018-07-15T12:29:20.015Z,32.50
2018-07-15T12:30:19.965Z,30.52
2018-07-15T12:31:19.958Z,29.94
2018-07-15T12:32:19.949Z,31.71
2018-07-15T12:33:19.939Z,31.51
2018-07-15T12:34:19.928Z,30.63
2018-07-15T12:35:19.931Z,31.22
2018-07-15T12:36:19.907Z,30.82
2018-07-15T12:37:19.897Z,31.41
2018-07-15T12:38:19.889Z,31.51
2018-07-15T12:39:19.880Z,31.90
2018-07-15T12:40:19.885Z,31.51
2018-07-15T12:41:19.860Z,30.14
2018-07-15T12:42:19.855Z,29.35
2018-07-15T12:43:19.851Z,30.73
2018-07-15T12:44:19.834Z,30.63
2018-07-15T12:45:19.840Z,30.24
2018-07-15T12:46:19.814Z,30.65
2018-07-15T12:47:19.807Z,31.33
2018-07-15T12:48:19.798Z,31.81
2018-07-15T12:49:19.787Z,30.73
2018-07-15T12:50:19.793Z,31.60
2018-07-15T12:51:19.768Z,29.83
2018-07-15T12:52:19.775Z,29.53